FW5238 Weather Reports


time (UTC)temp
F
wind
direction
speed
knots
gust
knots
rain 1hr
in
rain 24hr
in
rain mn
in
humidity
%
barometer
mb
20260507021014 56 144 0.9 4.3 0.00 0.07 0.07 90 1006.6
20260507020514 56 142 0.0 4.3 0.00 0.07 0.07 90 1006.7
20260507020031 56 0 0.9 4.3 0.00 0.07 0.07 90 1006.6
20260507015512 56 133 0.0 5.2 0.00 0.07 0.07 90 1006.7
20260507015014 56 154 0.0 5.2 0.00 0.07 0.07 90 1006.7
20260507014544 56 139 0.9 5.2 0.00 0.07 0.07 90 1006.7
20260507014014 56 161 0.9 3.5 0.00 0.07 0.07 90 1006.9
20260507013513 56 151 0.0 5.2 0.00 0.07 0.07 90 1006.9
20260507013030 56 140 1.7 5.2 0.00 0.07 0.07 90 1006.9
20260507012513 56 0 0.0 2.6 0.00 0.07 0.07 90 1007.0
20260507012017 56 0 0.0 7.8 0.00 0.07 0.07 90 1007.0
20260507011532 56 0 0.0 7.8 0.00 0.07 0.07 90 1007.0
20260507011013 56 151 0.9 7.0 0.00 0.07 0.07 90 1006.9
20260507010513 56 252 0.0 7.0 0.00 0.07 0.07 90 1007.1
20260507010034 56 139 1.7 7.0 0.00 0.07 0.07 90 1007.1
20260507005513 56 194 0.9 4.3 0.00 0.07 0.07 90 1007.2
20260507005015 56 205 0.9 7.0 0.00 0.07 0.07 90 1007.0
20260507004530 56 0 1.7 7.0 0.00 0.07 0.07 90 1007.0
20260507004018 56 79 1.7 7.0 0.00 0.07 0.07 90 1007.0
20260507003512 56 71 0.9 7.0 0.01 0.07 0.07 90 1007.1
20260507003030 56 182 0.9 7.8 0.01 0.07 0.07 90 1006.9
20260507002514 56 164 2.6 7.8 0.01 0.07 0.07 90 1006.8
20260507002014 56 206 1.7 6.1 0.01 0.07 0.07 90 1006.9
20260507001532 56 117 1.7 6.1 0.01 0.07 0.07 90 1006.9
20260507001017 56 154 0.9 8.7 0.01 0.07 0.07 90 1006.9
20260507000514 55 178 0.0 8.7 0.01 0.07 0.07 90 1006.9
20260507000037 55 169 1.7 7.8 0.01 0.07 0.07 90 1007.0
20260506235514 55 202 0.9 7.8 0.01 0.07 0.07 90 1006.9
20260506235015 55 134 0.9 7.0 0.01 0.07 0.07 90 1006.9
20260506234530 55 151 1.7 7.0 0.01 0.07 0.07 89 1006.7
20260506234012 55 162 0.9 8.7 0.01 0.07 0.07 89 1006.9
20260506233515 55 105 1.7 8.7 0.00 0.06 0.06 89 1006.7
20260506233034 55 246 0.0 7.8 0.00 0.06 0.06 89 1007.0
20260506232514 55 0 1.7 7.8 0.00 0.06 0.06 89 1006.9
20260506232014 55 147 1.7 7.8 0.00 0.06 0.06 89 1006.8
20260506231531 55 159 0.9 7.8 0.00 0.06 0.06 89 1007.0
20260506231018 55 115 2.6 7.8 0.01 0.06 0.06 89 1007.0
20260506230515 55 146 1.7 9.6 0.01 0.06 0.06 89 1007.0
20260506230032 55 196 2.6 9.6 0.02 0.06 0.06 89 1007.0
20260506225517 56 190 2.6 9.6 0.02 0.06 0.06 89 1006.9
20260506225013 56 210 0.9 7.8 0.02 0.06 0.06 89 1006.9
20260506224531 56 186 3.5 11.3 0.03 0.06 0.06 89 1006.8
20260506224016 56 143 1.7 11.3 0.03 0.06 0.06 89 1006.8
20260506223515 56 139 2.6 7.0 0.03 0.06 0.06 89 1006.7
20260506223032 56 147 1.7 7.8 0.04 0.06 0.06 88 1007.0
20260506222516 56 161 1.7 8.7 0.04 0.06 0.06 88 1006.8
20260506222018 56 142 1.7 8.7 0.04 0.06 0.06 88 1006.8
20260506221534 56 184 2.6 7.0 0.03 0.05 0.05 88 1007.1
20260506221017 56 17 0.0 8.7 0.03 0.05 0.05 88 1007.4
20260506220514 56 126 0.9 8.7 0.03 0.05 0.05 88 1007.5
20260506220030 56 171 3.5 10.4 0.02 0.04 0.04 88 1007.4
20260506215520 56 150 3.5 10.4 0.02 0.04 0.04 87 1007.5
20260506215018 57 179 2.6 10.4 0.02 0.04 0.04 87 1007.5
20260506214531 57 186 0.9 8.7 0.01 0.03 0.03 87 1007.5
20260506214014 57 170 2.6 8.7 0.01 0.03 0.03 86 1007.5
20260506213515 57 200 1.7 7.8 0.01 0.03 0.03 86 1007.6
20260506213031 57 196 1.7 7.8 0.00 0.02 0.02 86 1007.6
20260506212514 57 95 1.7 7.8 0.00 0.02 0.02 86 1007.5
20260506212014 58 172 1.7 7.8 0.00 0.02 0.02 86 1007.5
20260506211534 58 240 1.7 9.6 0.00 0.02 0.02 86 1007.7
20260506211015 58 194 2.6 9.6 0.00 0.02 0.02 86 1007.7
20260506210517 58 169 2.6 9.6 0.00 0.02 0.02 86 1007.7
20260506210032 58 214 1.7 8.7 0.00 0.02 0.02 86 1007.7
20260506205515 58 121 1.7 7.8 0.00 0.02 0.02 86 1007.8
20260506205014 58 155 2.6 9.6 0.00 0.02 0.02 86 1007.9
20260506204532 58 205 2.6 9.6 0.01 0.02 0.02 86 1007.9
20260506204014 58 183 2.6 13.0 0.01 0.02 0.02 86 1007.9
20260506203518 58 158 3.5 13.0 0.01 0.02 0.02 86 1008.1
20260506203032 58 153 1.7 8.7 0.02 0.02 0.02 86 1008.0
20260506202514 58 165 2.6 7.8 0.02 0.02 0.02 86 1008.0
20260506202012 59 71 1.7 8.7 0.02 0.02 0.02 86 1008.0
20260506201531 59 163 2.6 8.7 0.02 0.02 0.02 86 1008.0
20260506201013 59 202 2.6 7.8 0.02 0.02 0.02 86 1008.3
20260506200519 59 92 2.6 7.8 0.02 0.02 0.02 86 1008.1
20260506200029 60 117 0.9 8.7 0.02 0.02 0.02 86 1008.2
20260506195513 60 167 3.5 12.2 0.02 0.02 0.02 85 1008.1
20260506195011 60 161 4.3 12.2 0.02 0.02 0.02 85 1008.1
20260506194530 60 207 2.6 8.7 0.01 0.01 0.01 84 1008.3
20260506194014 61 321 1.7 8.7 0.01 0.01 0.01 83 1008.2
20260506193511 62 183 2.6 6.1 0.01 0.01 0.01 82 1008.5
20260506193033 62 155 0.9 7.8 0.00 0.00 0.00 81 1008.3
20260506192516 62 0 0.9 8.7 0.00 0.00 0.00 80 1008.4
20260506192013 63 174 1.7 18.2 0.00 0.00 0.00 79 1008.5
20260506191532 63 84 1.7 18.2 0.00 0.00 0.00 78 1008.3
20260506191014 64 128 2.6 11.3 0.00 0.00 0.00 76 1008.4
20260506190511 64 229 4.3 11.3 0.00 0.00 0.00 76 1008.3
20260506190030 64 137 1.7 11.3 0.00 0.00 0.00 75 1008.5
20260506185513 64 184 2.6 11.3 0.00 0.00 0.00 75 1008.4
20260506185012 64 155 2.6 7.8 0.00 0.00 0.00 75 1008.6
20260506184531 64 170 2.6 8.7 0.00 0.00 0.00 75 1008.3
20260506184010 64 248 3.5 8.7 0.00 0.00 0.00 74 1008.3
20260506183513 64 151 1.7 8.7 0.00 0.00 0.00 74 1008.3
20260506183032 65 132 1.7 8.7 0.00 0.00 0.00 74 1008.6
20260506182512 65 134 4.3 9.6 0.00 0.00 0.00 73 1008.6
20260506182014 66 176 3.5 9.6 0.00 0.00 0.00 73 1008.8
20260506181532 66 156 3.5 9.6 0.00 0.00 0.00 72 1008.6
20260506181015 66 190 2.6 8.7 0.00 0.00 0.00 72 1008.6
20260506180515 66 208 2.6 13.9 0.00 0.00 0.00 72 1008.7
20260506180036 67 168 2.6 13.9 0.00 0.00 0.00 71 1008.9
20260506175510 67 145 3.5 13.9 0.00 0.00 0.00 71 1009.1
20260506175011 67 67 4.3 13.9 0.00 0.00 0.00 71 1008.7
20260506174529 67 175 3.5 14.8 0.00 0.00 0.00 71 1009.1
20260506174013 67 150 5.2 14.8 0.00 0.00 0.00 70 1009.1
20260506173512 68 149 2.6 13.9 0.00 0.00 0.00 70 1009.4
20260506173029 68 147 3.5 13.0 0.00 0.00 0.00 70 1009.3
20260506172511 68 165 4.3 15.6 0.00 0.00 0.00 71 1009.4
20260506172013 67 134 5.2 15.6 0.00 0.00 0.00 71 1009.2
20260506171533 67 140 1.7 15.6 0.00 0.00 0.00 71 1009.2
20260506171010 67 189 5.2 15.6 0.00 0.00 0.00 70 1009.4
20260506170510 68 213 3.5 12.2 0.00 0.00 0.00 69 1009.4
20260506170031 69 0 4.3 14.8 0.00 0.00 0.00 68 1009.2
20260506165515 68 189 5.2 14.8 0.00 0.00 0.00 69 1009.4
20260506165010 68 177 4.3 13.0 0.00 0.00 0.00 69 1009.5
20260506164530 68 173 3.5 13.0 0.00 0.00 0.00 70 1009.6
20260506164011 67 44 3.5 12.2 0.00 0.00 0.00 71 1009.8
20260506163513 67 153 2.6 15.6 0.00 0.00 0.00 72 1009.9
20260506163052 67 191 3.5 16.5 0.00 0.00 0.00 71 1009.7
20260506162519 67 206 5.2 16.5 0.00 0.00 0.00 71 1009.8
20260506162013 67 184 3.5 13.0 0.00 0.00 0.00 71 1009.9
20260506161533 67 172 4.3 11.3 0.00 0.00 0.00 71 1010.1
20260506161010 66 178 3.5 13.9 0.00 0.00 0.00 72 1010.0
20260506160511 66 150 4.3 14.8 0.00 0.00 0.00 72 1010.1
20260506160032 67 134 3.5 15.6 0.00 0.00 0.00 71 1010.0
20260506155511 67 132 6.1 15.6 0.00 0.00 0.00 71 1010.3
20260506155010 67 123 1.7 11.3 0.00 0.00 0.00 72 1010.2
20260506154541 66 0 3.5 12.2 0.00 0.00 0.00 72 1010.3
20260506154014 67 175 3.5 17.4 0.00 0.00 0.00 71 1010.3
20260506153512 67 161 5.2 17.4 0.00 0.00 0.00 70 1010.5
20260506153036 67 149 4.3 13.0 0.00 0.00 0.00 71 1010.5
20260506152510 67 221 2.6 13.0 0.00 0.00 0.00 71 1010.7
20260506152014 67 195 5.2 13.0 0.00 0.00 0.00 72 1010.7
20260506151532 67 319 5.2 12.2 0.00 0.00 0.00 71 1010.4
20260506151013 66 174 1.7 12.2 0.00 0.00 0.00 73 1010.6
20260506150513 66 165 2.6 12.2 0.00 0.00 0.00 74 1010.8
20260506150030 65 193 4.3 13.0 0.00 0.00 0.00 73 1010.8
20260506145517 65 181 4.3 13.0 0.00 0.00 0.00 73 1010.7
20260506145011 65 178 4.3 12.2 0.00 0.00 0.00 73 1010.8
20260506144531 66 292 2.6 10.4 0.00 0.00 0.00 73 1010.6
20260506144010 66 230 4.3 14.8 0.00 0.00 0.00 72 1010.6
20260506143510 66 0 3.5 14.8 0.00 0.00 0.00 72 1010.6
20260506143038 66 136 2.6 9.6 0.00 0.00 0.00 73 1010.5
20260506142513 66 192 3.5 13.0 0.00 0.00 0.00 73 1010.6
20260506142010 66 241 2.6 15.6 0.00 0.00 0.00 73 1010.7
20260506141534 65 211 2.6 15.6 0.00 0.00 0.00 74 1010.7
20260506141011 65 169 2.6 9.6 0.00 0.00 0.00 73 1010.7
20260506140511 65 188 2.6 13.0 0.00 0.00 0.00 73 1010.6
20260506140030 65 234 3.5 14.8 0.00 0.00 0.00 73 1010.4
20260506135511 65 193 6.1 14.8 0.00 0.00 0.00 73 1010.4
20260506135014 65 165 4.3 13.0 0.00 0.00 0.00 73 1010.6
20260506134530 65 148 2.6 11.3 0.00 0.00 0.00 74 1010.6
20260506134020 65 189 2.6 11.3 0.00 0.00 0.00 75 1010.8
20260506133516 65 186 4.3 11.3 0.00 0.00 0.00 74 1011.0
20260506133032 64 190 2.6 10.4 0.00 0.00 0.00 75 1011.1
20260506132514 64 193 3.5 10.4 0.00 0.00 0.00 76 1011.2
20260506132014 63 180 3.5 10.4 0.00 0.00 0.00 77 1011.1
20260506131529 63 156 3.5 9.6 0.00 0.00 0.00 77 1011.2
20260506131014 63 161 2.6 8.7 0.00 0.00 0.00 78 1011.1
20260506130518 62 124 2.6 8.7 0.00 0.00 0.00 78 1011.1
20260506130030 62 155 1.7 14.8 0.00 0.00 0.00 79 1011.1
20260506125515 62 163 3.5 14.8 0.00 0.00 0.00 79 1011.1
20260506125015 62 164 2.6 11.3 0.00 0.00 0.00 79 1011.2
20260506124530 61 132 3.5 11.3 0.00 0.00 0.00 79 1011.1
20260506124015 61 0 2.6 9.6 0.00 0.00 0.00 79 1011.2
20260506123515 61 124 1.7 9.6 0.00 0.00 0.00 80 1011.1
20260506123035 61 127 2.6 9.6 0.00 0.00 0.00 80 1011.0
20260506122515 61 97 3.5 9.6 0.00 0.00 0.00 80 1011.0
20260506122015 60 193 1.7 8.7 0.00 0.00 0.00 81 1011.0
20260506121539 60 146 2.6 10.4 0.00 0.00 0.00 81 1011.0
20260506121014 59 133 2.6 10.4 0.00 0.00 0.00 82 1011.2
20260506120514 59 146 1.7 9.6 0.00 0.00 0.00 83 1011.3
20260506120030 58 186 3.5 9.6 0.00 0.00 0.00 82 1011.4
20260506115514 58 148 0.9 8.7 0.00 0.00 0.00 82 1011.6
20260506115014 59 126 1.7 8.7 0.00 0.00 0.00 82 1011.6
20260506114541 59 169 2.6 9.6 0.00 0.00 0.00 82 1011.4
20260506114014 59 157 3.5 9.6 0.00 0.00 0.00 82 1011.5
20260506113515 59 0 0.9 8.7 0.00 0.00 0.00 83 1011.6
20260506113030 59 128 1.7 13.0 0.00 0.00 0.00 83 1011.5
20260506112516 58 0 1.7 13.0 0.00 0.00 0.00 83 1011.5
20260506112018 58 136 2.6 8.7 0.00 0.00 0.00 84 1011.5
20260506111537 58 30 0.9 7.0 0.00 0.00 0.00 84 1011.4
20260506111014 57 158 1.7 8.7 0.00 0.00 0.00 84 1011.7
20260506110515 57 168 1.7 8.7 0.00 0.00 0.00 84 1011.6
20260506110033 57 202 2.6 7.8 0.00 0.00 0.00 84 1011.4
20260506105513 57 175 0.9 7.0 0.00 0.00 0.00 84 1011.4
20260506105014 57 141 1.7 8.7 0.00 0.00 0.00 84 1011.4
20260506104533 57 91 3.5 8.7 0.00 0.00 0.00 84 1011.4
20260506104012 57 0 1.7 7.0 0.00 0.00 0.00 85 1011.5
20260506103514 57 129 2.6 10.4 0.00 0.00 0.00 85 1011.5
20260506103031 57 142 1.7 10.4 0.00 0.00 0.00 85 1011.3
20260506102514 57 146 2.6 10.4 0.00 0.00 0.00 85 1011.5
20260506102015 57 169 1.7 7.8 0.00 0.00 0.00 85 1011.4
20260506101534 57 123 0.9 7.8 0.00 0.00 0.00 85 1011.4
20260506101013 57 159 0.9 9.6 0.00 0.00 0.00 84 1011.4
20260506100513 57 123 0.9 9.6 0.00 0.00 0.00 84 1011.3
20260506100030 57 167 1.7 8.7 0.00 0.00 0.00 84 1011.3
20260506095515 57 153 0.9 7.8 0.00 0.00 0.00 84 1011.3
20260506095022 57 119 1.7 7.8 0.00 0.00 0.00 84 1011.2
20260506094530 57 127 0.9 7.0 0.00 0.00 0.00 84 1011.1
20260506094014 57 90 1.7 7.0 0.00 0.00 0.00 84 1011.2
20260506093514 57 145 0.9 8.7 0.00 0.00 0.00 84 1011.2
20260506093032 57 196 2.6 8.7 0.00 0.00 0.00 84 1011.2
20260506092513 57 60 0.9 9.6 0.00 0.00 0.00 84 1011.2
20260506092014 57 181 1.7 9.6 0.00 0.00 0.00 84 1011.2
20260506091532 57 188 2.6 9.6 0.00 0.00 0.00 84 1011.2
20260506091014 57 148 0.9 8.7 0.00 0.00 0.00 83 1011.2
20260506090514 58 171 1.7 8.7 0.00 0.00 0.00 83 1011.3
20260506090029 58 138 1.7 7.8 0.00 0.00 0.00 83 1011.3
20260506085514 58 149 1.7 10.4 0.00 0.00 0.00 83 1011.3
20260506085013 58 197 1.7 10.4 0.00 0.00 0.00 83 1011.3
20260506084532 58 156 0.9 9.6 0.00 0.00 0.00 83 1011.4
20260506084012 58 134 0.9 9.6 0.00 0.00 0.00 83 1011.5
20260506083513 58 194 2.6 9.6 0.00 0.00 0.00 83 1011.5
20260506083032 58 188 2.6 7.8 0.00 0.00 0.00 83 1011.5
20260506082514 58 91 0.9 7.8 0.00 0.00 0.00 83 1011.4
20260506082014 58 139 1.7 7.0 0.00 0.00 0.00 83 1011.5
20260506081532 58 196 1.7 7.0 0.00 0.00 0.00 83 1011.5
20260506081015 58 95 2.6 7.0 0.00 0.00 0.00 83 1011.5
20260506080517 58 135 1.7 8.7 0.00 0.00 0.00 82 1011.4
20260506073514 59 171 3.5 7.8 0.00 0.00 0.00 81 1011.3
20260506073041 59 146 1.7 8.7 0.00 0.00 0.00 81 1011.4
20260506072515 59 183 1.7 10.4 0.00 0.00 0.00 81 1011.4
20260506072014 59 194 1.7 10.4 0.00 0.00 0.00 81 1011.2
20260506071534 59 157 1.7 7.8 0.00 0.00 0.00 81 1011.4
20260506071017 59 169 1.7 7.0 0.00 0.00 0.00 81 1011.2
20260506070514 59 155 1.7 11.3 0.00 0.00 0.00 81 1011.4
20260506062014 59 130 2.6 12.2 0.00 0.00 0.00 80 1011.3
20260506061535 59 160 3.5 12.2 0.00 0.00 0.00 80 1011.1
20260506061014 59 195 0.9 6.1 0.00 0.00 0.00 80 1011.2
20260506060513 59 187 0.9 13.0 0.00 0.00 0.00 80 1011.2
20260506051014 57 119 2.6 9.6 0.00 0.00 0.00 80 1011.6
20260506050518 57 170 0.9 9.6 0.00 0.00 0.00 80 1011.7
20260506045015 57 173 0.9 5.2 0.00 0.00 0.00 80 1012.0
20260506044539 57 128 1.7 5.2 0.00 0.00 0.00 79 1011.9
20260506044018 57 155 1.7 5.2 0.00 0.00 0.00 79 1011.9
20260506043514 58 130 1.7 5.2 0.00 0.00 0.00 79 1011.9
20260506043029 58 355 0.9 7.0 0.00 0.00 0.00 79 1012.0
20260506042512 58 135 1.7 7.8 0.00 0.00 0.00 78 1011.9
20260506042018 58 164 1.7 7.8 0.00 0.00 0.00 78 1011.9
20260506041532 58 202 2.6 7.0 0.00 0.00 0.00 77 1011.8
20260506041014 58 128 1.7 12.2 0.00 0.00 0.00 77 1011.9
20260506040514 58 156 3.5 12.2 0.00 0.00 0.00 77 1011.8
20260506040051 58 119 1.7 9.6 0.00 0.00 0.00 76 1011.8
20260506035515 58 188 2.6 9.6 0.00 0.00 0.00 77 1011.8
20260506035013 58 181 1.7 8.7 0.00 0.00 0.00 76 1011.8
20260506034529 58 163 1.7 8.7 0.00 0.00 0.00 76 1011.7
20260506034013 58 184 1.7 8.7 0.00 0.00 0.00 76 1011.6
20260506033514 58 115 0.9 9.6 0.00 0.00 0.00 76 1011.6
20260506033032 58 239 0.9 9.6 0.00 0.00 0.00 76 1011.7
20260506032514 58 262 0.9 7.8 0.00 0.00 0.00 76 1011.7
20260506032014 58 163 0.9 9.6 0.00 0.00 0.00 75 1011.5
20260506031544 58 155 2.6 9.6 0.00 0.00 0.00 75 1011.5
20260506031018 58 116 1.7 9.6 0.00 0.00 0.00 75 1011.5
20260506030511 58 168 0.9 9.6 0.00 0.00 0.00 75 1011.6
20260506030033 58 185 2.6 9.6 0.00 0.00 0.00 75 1011.7
20260506025516 59 150 1.7 7.8 0.00 0.00 0.00 74 1011.6
20260506025014 59 178 1.7 8.7 0.00 0.00 0.00 74 1011.7
20260506024530 59 208 2.6 8.7 0.00 0.00 0.00 74 1011.6
20260506024015 59 161 1.7 7.0 0.00 0.00 0.00 74 1011.7
20260506023514 59 196 1.7 7.8 0.00 0.00 0.00 74 1011.7
20260506023032 58 130 1.7 8.7 0.00 0.00 0.00 74 1011.5
20260506022514 59 184 1.7 8.7 0.00 0.00 0.00 74 1011.6
20260506022014 59 189 0.9 7.8 0.00 0.00 0.00 74 1011.5
20260506021530 59 124 1.7 7.0 0.00 0.00 0.00 74 1011.5